sensor_id;sensor_type;location;lat;lon;timestamp;temperature;humidity
47540;DHT22;33280;52.152;21.052;2022-12-07T00:01:23;1.40;99.90
47540;DHT22;33280;52.152;21.052;2022-12-07T00:03:52;1.40;99.90
47540;DHT22;33280;52.152;21.052;2022-12-07T00:06:26;1.50;99.90
47540;DHT22;33280;52.152;21.052;2022-12-07T00:09:05;1.50;99.90
47540;DHT22;33280;52.152;21.052;2022-12-07T00:11:33;1.50;99.90
47540;DHT22;33280;52.152;21.052;2022-12-07T00:14:03;1.50;99.90
47540;DHT22;33280;52.152;21.052;2022-12-07T00:16:32;1.60;99.90
47540;DHT22;33280;52.152;21.052;2022-12-07T00:19:03;1.60;99.90
47540;DHT22;33280;52.152;21.052;2022-12-07T00:21:33;1.60;99.90
47540;DHT22;33280;52.152;21.052;2022-12-07T00:24:01;1.60;99.90
47540;DHT22;33280;52.152;21.052;2022-12-07T00:26:31;1.60;99.90
47540;DHT22;33280;52.152;21.052;2022-12-07T00:29:33;1.70;99.90
47540;DHT22;33280;52.152;21.052;2022-12-07T00:31:53;1.70;99.90
47540;DHT22;33280;52.152;21.052;2022-12-07T00:34:21;1.70;99.90
47540;DHT22;33280;52.152;21.052;2022-12-07T00:36:49;1.80;99.90
47540;DHT22;33280;52.152;21.052;2022-12-07T00:39:16;1.80;99.90
47540;DHT22;33280;52.152;21.052;2022-12-07T00:41:43;1.70;99.90
47540;DHT22;33280;52.152;21.052;2022-12-07T00:44:10;1.80;99.90
47540;DHT22;33280;52.152;21.052;2022-12-07T00:46:37;1.80;99.90
47540;DHT22;33280;52.152;21.052;2022-12-07T00:49:04;1.90;99.90
47540;DHT22;33280;52.152;21.052;2022-12-07T00:51:32;1.90;99.90
47540;DHT22;33280;52.152;21.052;2022-12-07T00:53:59;1.90;99.90
47540;DHT22;33280;52.152;21.052;2022-12-07T00:56:27;1.90;99.90
47540;DHT22;33280;52.152;21.052;2022-12-07T00:59:00;2.00;99.90
47540;DHT22;33280;52.152;21.052;2022-12-07T01:01:30;2.00;99.90
47540;DHT22;33280;52.152;21.052;2022-12-07T01:03:57;2.00;99.90
47540;DHT22;33280;52.152;21.052;2022-12-07T01:06:25;2.00;99.90
47540;DHT22;33280;52.152;21.052;2022-12-07T01:08:53;2.10;99.90
47540;DHT22;33280;52.152;21.052;2022-12-07T01:11:22;2.00;99.90
47540;DHT22;33280;52.152;21.052;2022-12-07T01:13:54;2.10;99.90
47540;DHT22;33280;52.152;21.052;2022-12-07T01:16:23;2.10;99.90
47540;DHT22;33280;52.152;21.052;2022-12-07T01:18:52;2.10;99.90
47540;DHT22;33280;52.152;21.052;2022-12-07T01:21:23;2.10;99.90
47540;DHT22;33280;52.152;21.052;2022-12-07T01:23:50;2.10;99.90
47540;DHT22;33280;52.152;21.052;2022-12-07T01:26:21;2.20;99.90
47540;DHT22;33280;52.152;21.052;2022-12-07T01:28:49;2.20;99.90
47540;DHT22;33280;52.152;21.052;2022-12-07T01:31:19;2.30;99.90
47540;DHT22;33280;52.152;21.052;2022-12-07T01:33:48;2.40;99.90
47540;DHT22;33280;52.152;21.052;2022-12-07T01:36:21;2.40;99.90
47540;DHT22;33280;52.152;21.052;2022-12-07T01:38:50;2.40;99.90
47540;DHT22;33280;52.152;21.052;2022-12-07T01:41:20;2.40;99.90
47540;DHT22;33280;52.152;21.052;2022-12-07T01:46:40;2.40;99.90
47540;DHT22;33280;52.152;21.052;2022-12-07T01:49:13;2.40;99.90
47540;DHT22;33280;52.152;21.052;2022-12-07T01:51:42;2.40;99.90
47540;DHT22;33280;52.152;21.052;2022-12-07T01:54:11;2.50;99.90
47540;DHT22;33280;52.152;21.052;2022-12-07T01:56:41;2.50;99.90
47540;DHT22;33280;52.152;21.052;2022-12-07T01:59:09;2.40;99.90
47540;DHT22;33280;52.152;21.052;2022-12-07T02:01:36;2.40;99.90
47540;DHT22;33280;52.152;21.052;2022-12-07T02:04:03;2.50;99.90
47540;DHT22;33280;52.152;21.052;2022-12-07T02:06:31;2.60;99.90
47540;DHT22;33280;52.152;21.052;2022-12-07T02:08:58;2.60;99.90
47540;DHT22;33280;52.152;21.052;2022-12-07T02:11:24;2.50;99.90
47540;DHT22;33280;52.152;21.052;2022-12-07T02:13:51;2.50;99.90
47540;DHT22;33280;52.152;21.052;2022-12-07T02:27:40;2.50;99.90
47540;DHT22;33280;52.152;21.052;2022-12-07T02:30:13;2.50;99.90
47540;DHT22;33280;52.152;21.052;2022-12-07T02:35:41;2.50;99.90
47540;DHT22;33280;52.152;21.052;2022-12-07T02:38:35;2.50;99.90
47540;DHT22;33280;52.152;21.052;2022-12-07T02:41:10;2.30;99.90
47540;DHT22;33280;52.152;21.052;2022-12-07T02:43:45;2.30;99.90
47540;DHT22;33280;52.152;21.052;2022-12-07T02:46:23;2.30;99.90
47540;DHT22;33280;52.152;21.052;2022-12-07T02:48:52;2.30;99.90
47540;DHT22;33280;52.152;21.052;2022-12-07T02:51:20;2.20;99.90
47540;DHT22;33280;52.152;21.052;2022-12-07T02:53:47;2.20;99.90
47540;DHT22;33280;52.152;21.052;2022-12-07T02:56:30;2.20;99.90
47540;DHT22;33280;52.152;21.052;2022-12-07T03:02:17;2.20;99.90
47540;DHT22;33280;52.152;21.052;2022-12-07T03:10:21;2.20;99.90
47540;DHT22;33280;52.152;21.052;2022-12-07T03:13:12;2.20;99.90
47540;DHT22;33280;52.152;21.052;2022-12-07T03:16:24;2.30;99.90
47540;DHT22;33280;52.152;21.052;2022-12-07T03:18:58;2.20;99.90
47540;DHT22;33280;52.152;21.052;2022-12-07T03:21:33;2.30;99.90
47540;DHT22;33280;52.152;21.052;2022-12-07T03:24:14;2.20;99.90
47540;DHT22;33280;52.152;21.052;2022-12-07T03:26:48;2.10;99.90
47540;DHT22;33280;52.152;21.052;2022-12-07T03:29:41;2.10;99.90
47540;DHT22;33280;52.152;21.052;2022-12-07T03:32:30;2.10;99.90
47540;DHT22;33280;52.152;21.052;2022-12-07T03:35:07;2.00;99.90
47540;DHT22;33280;52.152;21.052;2022-12-07T03:38:13;1.90;99.90
47540;DHT22;33280;52.152;21.052;2022-12-07T03:43:12;2.00;99.90
47540;DHT22;33280;52.152;21.052;2022-12-07T03:45:41;2.00;99.90
47540;DHT22;33280;52.152;21.052;2022-12-07T03:48:30;1.90;99.90
47540;DHT22;33280;52.152;21.052;2022-12-07T03:51:21;2.00;99.90
47540;DHT22;33280;52.152;21.052;2022-12-07T03:54:01;1.90;99.90
47540;DHT22;33280;52.152;21.052;2022-12-07T03:56:29;1.90;99.90
47540;DHT22;33280;52.152;21.052;2022-12-07T03:58:57;1.90;99.90
47540;DHT22;33280;52.152;21.052;2022-12-07T04:01:24;2.00;99.90
47540;DHT22;33280;52.152;21.052;2022-12-07T04:03:51;1.90;99.90
47540;DHT22;33280;52.152;21.052;2022-12-07T04:06:18;1.90;99.90
47540;DHT22;33280;52.152;21.052;2022-12-07T04:08:45;1.90;99.90
47540;DHT22;33280;52.152;21.052;2022-12-07T04:11:12;1.90;99.90
47540;DHT22;33280;52.152;21.052;2022-12-07T04:13:39;1.80;99.90
47540;DHT22;33280;52.152;21.052;2022-12-07T04:16:24;1.80;99.90
47540;DHT22;33280;52.152;21.052;2022-12-07T04:18:51;1.70;99.90
47540;DHT22;33280;52.152;21.052;2022-12-07T04:21:18;1.70;99.90
47540;DHT22;33280;52.152;21.052;2022-12-07T04:23:45;1.70;99.90
47540;DHT22;33280;52.152;21.052;2022-12-07T04:26:12;1.70;99.90
47540;DHT22;33280;52.152;21.052;2022-12-07T04:28:39;1.70;99.90
47540;DHT22;33280;52.152;21.052;2022-12-07T04:31:06;1.70;99.90
47540;DHT22;33280;52.152;21.052;2022-12-07T04:33:33;1.60;99.90
47540;DHT22;33280;52.152;21.052;2022-12-07T04:36:00;1.60;99.90
47540;DHT22;33280;52.152;21.052;2022-12-07T04:38:27;1.60;99.90
47540;DHT22;33280;52.152;21.052;2022-12-07T04:40:53;1.60;99.90
47540;DHT22;33280;52.152;21.052;2022-12-07T04:43:20;1.60;99.90
47540;DHT22;33280;52.152;21.052;2022-12-07T04:45:48;1.60;99.90
47540;DHT22;33280;52.152;21.052;2022-12-07T04:48:15;1.60;99.90
47540;DHT22;33280;52.152;21.052;2022-12-07T04:50:42;1.50;99.90
47540;DHT22;33280;52.152;21.052;2022-12-07T04:53:12;1.60;99.90
47540;DHT22;33280;52.152;21.052;2022-12-07T04:55:38;1.50;99.90
47540;DHT22;33280;52.152;21.052;2022-12-07T04:58:05;1.50;99.90
47540;DHT22;33280;52.152;21.052;2022-12-07T05:00:32;1.50;99.90
47540;DHT22;33280;52.152;21.052;2022-12-07T05:03:00;1.50;99.90
47540;DHT22;33280;52.152;21.052;2022-12-07T05:05:26;1.50;99.90
47540;DHT22;33280;52.152;21.052;2022-12-07T05:07:53;1.40;99.90
47540;DHT22;33280;52.152;21.052;2022-12-07T05:10:20;1.40;99.90
47540;DHT22;33280;52.152;21.052;2022-12-07T05:12:47;1.40;99.90
47540;DHT22;33280;52.152;21.052;2022-12-07T05:15:15;1.30;99.90
47540;DHT22;33280;52.152;21.052;2022-12-07T05:17:42;1.30;99.90
47540;DHT22;33280;52.152;21.052;2022-12-07T05:20:09;1.40;99.90
47540;DHT22;33280;52.152;21.052;2022-12-07T05:22:36;1.30;99.90
47540;DHT22;33280;52.152;21.052;2022-12-07T05:25:03;1.30;99.90
47540;DHT22;33280;52.152;21.052;2022-12-07T05:27:30;1.30;99.90
47540;DHT22;33280;52.152;21.052;2022-12-07T05:29:57;1.30;99.90
47540;DHT22;33280;52.152;21.052;2022-12-07T05:32:25;1.20;99.90
47540;DHT22;33280;52.152;21.052;2022-12-07T05:34:52;1.10;99.90
47540;DHT22;33280;52.152;21.052;2022-12-07T05:37:21;1.10;99.90
47540;DHT22;33280;52.152;21.052;2022-12-07T05:39:48;1.00;99.90
47540;DHT22;33280;52.152;21.052;2022-12-07T05:42:15;1.10;99.90
47540;DHT22;33280;52.152;21.052;2022-12-07T05:44:46;1.10;99.90
47540;DHT22;33280;52.152;21.052;2022-12-07T05:47:14;1.10;99.90
47540;DHT22;33280;52.152;21.052;2022-12-07T05:49:41;1.10;99.90
47540;DHT22;33280;52.152;21.052;2022-12-07T05:52:07;1.10;99.90
47540;DHT22;33280;52.152;21.052;2022-12-07T05:54:34;1.10;99.90
47540;DHT22;33280;52.152;21.052;2022-12-07T05:57:01;1.10;99.90
47540;DHT22;33280;52.152;21.052;2022-12-07T05:59:28;1.10;99.90
47540;DHT22;33280;52.152;21.052;2022-12-07T06:01:58;1.00;99.90
47540;DHT22;33280;52.152;21.052;2022-12-07T06:04:28;1.00;99.90
47540;DHT22;33280;52.152;21.052;2022-12-07T06:06:55;1.00;99.90
47540;DHT22;33280;52.152;21.052;2022-12-07T06:09:24;1.10;99.90
47540;DHT22;33280;52.152;21.052;2022-12-07T06:11:51;1.10;99.90
47540;DHT22;33280;52.152;21.052;2022-12-07T06:14:36;1.00;99.90
47540;DHT22;33280;52.152;21.052;2022-12-07T06:17:03;1.00;99.90
47540;DHT22;33280;52.152;21.052;2022-12-07T06:19:30;1.00;99.90
47540;DHT22;33280;52.152;21.052;2022-12-07T06:21:58;1.00;99.90
47540;DHT22;33280;52.152;21.052;2022-12-07T06:24:25;0.90;99.90
47540;DHT22;33280;52.152;21.052;2022-12-07T06:26:52;0.90;99.90
47540;DHT22;33280;52.152;21.052;2022-12-07T06:29:19;0.90;99.90
47540;DHT22;33280;52.152;21.052;2022-12-07T06:31:46;0.90;99.90
47540;DHT22;33280;52.152;21.052;2022-12-07T06:34:18;0.90;99.90
47540;DHT22;33280;52.152;21.052;2022-12-07T06:36:46;0.90;99.90
47540;DHT22;33280;52.152;21.052;2022-12-07T06:39:18;0.90;99.90
47540;DHT22;33280;52.152;21.052;2022-12-07T06:41:45;0.90;99.90
47540;DHT22;33280;52.152;21.052;2022-12-07T06:44:12;0.90;99.90
47540;DHT22;33280;52.152;21.052;2022-12-07T06:46:39;0.90;99.90
47540;DHT22;33280;52.152;21.052;2022-12-07T06:49:06;0.80;99.90
47540;DHT22;33280;52.152;21.052;2022-12-07T06:51:33;0.80;99.90
47540;DHT22;33280;52.152;21.052;2022-12-07T06:54:03;0.80;99.90
47540;DHT22;33280;52.152;21.052;2022-12-07T06:56:30;0.80;99.90
47540;DHT22;33280;52.152;21.052;2022-12-07T06:58:57;0.80;99.90
47540;DHT22;33280;52.152;21.052;2022-12-07T07:01:24;0.70;99.90
47540;DHT22;33280;52.152;21.052;2022-12-07T07:03:51;0.80;99.90
47540;DHT22;33280;52.152;21.052;2022-12-07T07:06:18;0.80;99.90
47540;DHT22;33280;52.152;21.052;2022-12-07T07:08:45;0.80;99.90
47540;DHT22;33280;52.152;21.052;2022-12-07T07:11:12;0.80;99.90
47540;DHT22;33280;52.152;21.052;2022-12-07T07:13:39;0.80;99.90
47540;DHT22;33280;52.152;21.052;2022-12-07T07:16:07;0.70;99.90
47540;DHT22;33280;52.152;21.052;2022-12-07T07:18:34;0.80;99.90
47540;DHT22;33280;52.152;21.052;2022-12-07T07:21:01;0.80;99.90
47540;DHT22;33280;52.152;21.052;2022-12-07T07:23:28;0.80;99.90
47540;DHT22;33280;52.152;21.052;2022-12-07T07:25:55;0.80;99.90
47540;DHT22;33280;52.152;21.052;2022-12-07T07:28:22;0.80;99.90
47540;DHT22;33280;52.152;21.052;2022-12-07T07:30:49;0.80;99.90
47540;DHT22;33280;52.152;21.052;2022-12-07T07:33:16;0.80;99.90
47540;DHT22;33280;52.152;21.052;2022-12-07T07:35:42;0.80;99.90
47540;DHT22;33280;52.152;21.052;2022-12-07T07:38:09;0.80;99.90
47540;DHT22;33280;52.152;21.052;2022-12-07T07:40:36;0.90;99.90
47540;DHT22;33280;52.152;21.052;2022-12-07T07:43:03;0.90;99.90
47540;DHT22;33280;52.152;21.052;2022-12-07T07:45:30;0.90;99.90
47540;DHT22;33280;52.152;21.052;2022-12-07T07:47:57;0.90;99.90
47540;DHT22;33280;52.152;21.052;2022-12-07T07:50:24;1.00;99.90
47540;DHT22;33280;52.152;21.052;2022-12-07T07:52:50;0.90;99.90
47540;DHT22;33280;52.152;21.052;2022-12-07T07:55:17;0.90;99.90
47540;DHT22;33280;52.152;21.052;2022-12-07T07:57:44;1.00;99.90
47540;DHT22;33280;52.152;21.052;2022-12-07T08:00:20;1.00;99.90
47540;DHT22;33280;52.152;21.052;2022-12-07T08:02:47;1.00;99.90
47540;DHT22;33280;52.152;21.052;2022-12-07T08:05:14;1.00;99.90
47540;DHT22;33280;52.152;21.052;2022-12-07T08:07:41;1.00;99.90
47540;DHT22;33280;52.152;21.052;2022-12-07T08:10:10;1.10;99.90
47540;DHT22;33280;52.152;21.052;2022-12-07T08:12:39;1.10;99.90
47540;DHT22;33280;52.152;21.052;2022-12-07T08:15:30;1.10;99.90
47540;DHT22;33280;52.152;21.052;2022-12-07T08:17:58;1.20;99.90
47540;DHT22;33280;52.152;21.052;2022-12-07T08:20:25;1.10;99.90
47540;DHT22;33280;52.152;21.052;2022-12-07T08:22:52;1.20;99.90
47540;DHT22;33280;52.152;21.052;2022-12-07T08:25:19;1.30;99.90
47540;DHT22;33280;52.152;21.052;2022-12-07T08:27:46;1.20;99.90
47540;DHT22;33280;52.152;21.052;2022-12-07T08:30:13;1.30;99.90
47540;DHT22;33280;52.152;21.052;2022-12-07T08:32:40;1.30;99.90
47540;DHT22;33280;52.152;21.052;2022-12-07T08:35:08;1.30;99.90
47540;DHT22;33280;52.152;21.052;2022-12-07T08:37:35;1.20;99.90
47540;DHT22;33280;52.152;21.052;2022-12-07T08:40:03;1.30;99.90
47540;DHT22;33280;52.152;21.052;2022-12-07T08:42:31;1.30;99.90
47540;DHT22;33280;52.152;21.052;2022-12-07T08:45:08;1.40;99.90
47540;DHT22;33280;52.152;21.052;2022-12-07T08:47:38;1.40;99.90
47540;DHT22;33280;52.152;21.052;2022-12-07T08:50:08;1.40;99.90
47540;DHT22;33280;52.152;21.052;2022-12-07T08:52:36;1.40;99.90
47540;DHT22;33280;52.152;21.052;2022-12-07T08:55:04;1.50;99.90
47540;DHT22;33280;52.152;21.052;2022-12-07T08:57:33;1.60;99.90
47540;DHT22;33280;52.152;21.052;2022-12-07T09:00:01;1.60;99.90
47540;DHT22;33280;52.152;21.052;2022-12-07T09:02:28;1.60;99.90
47540;DHT22;33280;52.152;21.052;2022-12-07T09:04:56;1.70;99.90
47540;DHT22;33280;52.152;21.052;2022-12-07T09:07:24;1.70;99.90
47540;DHT22;33280;52.152;21.052;2022-12-07T09:09:51;1.70;99.90
47540;DHT22;33280;52.152;21.052;2022-12-07T09:12:18;1.80;99.90
47540;DHT22;33280;52.152;21.052;2022-12-07T09:14:45;1.80;99.90
47540;DHT22;33280;52.152;21.052;2022-12-07T09:17:12;1.90;99.90
47540;DHT22;33280;52.152;21.052;2022-12-07T09:19:39;1.90;99.90
47540;DHT22;33280;52.152;21.052;2022-12-07T09:22:08;1.90;99.90
47540;DHT22;33280;52.152;21.052;2022-12-07T09:24:35;2.00;99.90
47540;DHT22;33280;52.152;21.052;2022-12-07T09:27:02;1.90;99.90
47540;DHT22;33280;52.152;21.052;2022-12-07T09:29:29;2.00;99.90
47540;DHT22;33280;52.152;21.052;2022-12-07T09:31:56;2.10;99.90
47540;DHT22;33280;52.152;21.052;2022-12-07T09:34:24;2.10;99.90
47540;DHT22;33280;52.152;21.052;2022-12-07T09:36:57;2.20;99.90
47540;DHT22;33280;52.152;21.052;2022-12-07T09:39:24;2.30;99.90
47540;DHT22;33280;52.152;21.052;2022-12-07T09:41:51;2.20;99.90
47540;DHT22;33280;52.152;21.052;2022-12-07T09:44:23;2.30;99.90
47540;DHT22;33280;52.152;21.052;2022-12-07T09:47:05;2.30;99.90
47540;DHT22;33280;52.152;21.052;2022-12-07T09:49:48;2.40;99.90
47540;DHT22;33280;52.152;21.052;2022-12-07T09:52:26;2.40;99.90
47540;DHT22;33280;52.152;21.052;2022-12-07T09:54:53;2.40;99.90
47540;DHT22;33280;52.152;21.052;2022-12-07T09:57:28;2.40;99.90
47540;DHT22;33280;52.152;21.052;2022-12-07T10:00:04;2.50;99.90
47540;DHT22;33280;52.152;21.052;2022-12-07T10:02:40;2.50;99.90
47540;DHT22;33280;52.152;21.052;2022-12-07T10:05:19;2.50;99.90
47540;DHT22;33280;52.152;21.052;2022-12-07T10:07:50;2.50;99.90
47540;DHT22;33280;52.152;21.052;2022-12-07T10:10:30;2.60;99.90
47540;DHT22;33280;52.152;21.052;2022-12-07T10:13:06;2.50;99.90
47540;DHT22;33280;52.152;21.052;2022-12-07T10:15:55;2.40;99.90
47540;DHT22;33280;52.152;21.052;2022-12-07T10:18:32;2.50;99.90
47540;DHT22;33280;52.152;21.052;2022-12-07T10:21:12;2.50;99.90
47540;DHT22;33280;52.152;21.052;2022-12-07T10:24:00;2.50;99.90
47540;DHT22;33280;52.152;21.052;2022-12-07T10:31:56;2.50;99.90
47540;DHT22;33280;52.152;21.052;2022-12-07T10:34:31;2.50;99.90
47540;DHT22;33280;52.152;21.052;2022-12-07T10:39:55;2.60;99.90
47540;DHT22;33280;52.152;21.052;2022-12-07T10:42:24;2.60;99.90
47540;DHT22;33280;52.152;21.052;2022-12-07T10:53:47;2.70;99.90
47540;DHT22;33280;52.152;21.052;2022-12-07T11:01:53;2.60;99.90
47540;DHT22;33280;52.152;21.052;2022-12-07T11:04:33;2.70;99.90
47540;DHT22;33280;52.152;21.052;2022-12-07T11:10:06;2.70;99.90
47540;DHT22;33280;52.152;21.052;2022-12-07T11:13:21;2.70;99.90
47540;DHT22;33280;52.152;21.052;2022-12-07T11:16:34;2.70;99.90
47540;DHT22;33280;52.152;21.052;2022-12-07T11:25:18;2.70;99.90
47540;DHT22;33280;52.152;21.052;2022-12-07T11:33:33;2.70;99.90
47540;DHT22;33280;52.152;21.052;2022-12-07T11:38:59;2.70;99.90
47540;DHT22;33280;52.152;21.052;2022-12-07T11:41:34;2.70;99.90
47540;DHT22;33280;52.152;21.052;2022-12-07T11:44:33;2.70;99.90
47540;DHT22;33280;52.152;21.052;2022-12-07T11:47:07;2.70;99.90
47540;DHT22;33280;52.152;21.052;2022-12-07T11:49:56;2.70;99.90
47540;DHT22;33280;52.152;21.052;2022-12-07T11:55:00;2.70;99.90
47540;DHT22;33280;52.152;21.052;2022-12-07T11:57:37;2.80;99.90
47540;DHT22;33280;52.152;21.052;2022-12-07T12:00:13;2.70;99.90
47540;DHT22;33280;52.152;21.052;2022-12-07T12:02:52;2.70;99.90
47540;DHT22;33280;52.152;21.052;2022-12-07T12:05:25;2.70;99.90
47540;DHT22;33280;52.152;21.052;2022-12-07T12:10:55;2.70;99.90
47540;DHT22;33280;52.152;21.052;2022-12-07T12:17:25;2.80;99.90
47540;DHT22;33280;52.152;21.052;2022-12-07T12:25:05;2.50;99.90
47540;DHT22;33280;52.152;21.052;2022-12-07T12:27:36;2.40;99.90
47540;DHT22;33280;52.152;21.052;2022-12-07T12:30:31;2.40;99.90
47540;DHT22;33280;52.152;21.052;2022-12-07T12:33:27;2.40;99.90
47540;DHT22;33280;52.152;21.052;2022-12-07T12:39:09;2.40;99.90
47540;DHT22;33280;52.152;21.052;2022-12-07T12:51:59;2.30;99.90
47540;DHT22;33280;52.152;21.052;2022-12-07T12:54:31;2.40;99.90
47540;DHT22;33280;52.152;21.052;2022-12-07T12:57:20;2.30;99.90
47540;DHT22;33280;52.152;21.052;2022-12-07T13:15:53;2.40;99.90
47540;DHT22;33280;52.152;21.052;2022-12-07T13:26:18;2.40;99.90
47540;DHT22;33280;52.152;21.052;2022-12-07T13:31:39;2.40;99.90
47540;DHT22;33280;52.152;21.052;2022-12-07T13:36:57;2.40;99.90
47540;DHT22;33280;52.152;21.052;2022-12-07T13:39:26;2.40;99.90
47540;DHT22;33280;52.152;21.052;2022-12-07T13:41:55;2.30;99.90
47540;DHT22;33280;52.152;21.052;2022-12-07T13:44:25;2.30;99.90
47540;DHT22;33280;52.152;21.052;2022-12-07T13:49:36;2.30;99.90
47540;DHT22;33280;52.152;21.052;2022-12-07T13:52:39;2.30;99.90
47540;DHT22;33280;52.152;21.052;2022-12-07T13:55:17;2.30;99.90
47540;DHT22;33280;52.152;21.052;2022-12-07T13:57:50;2.30;99.90
47540;DHT22;33280;52.152;21.052;2022-12-07T14:00:22;2.30;99.90
47540;DHT22;33280;52.152;21.052;2022-12-07T14:03:00;2.30;99.90
47540;DHT22;33280;52.152;21.052;2022-12-07T14:05:34;2.20;99.90
47540;DHT22;33280;52.152;21.052;2022-12-07T14:08:20;2.20;99.90
47540;DHT22;33280;52.152;21.052;2022-12-07T14:13:36;2.20;99.90
47540;DHT22;33280;52.152;21.052;2022-12-07T14:18:55;2.10;99.90
47540;DHT22;33280;52.152;21.052;2022-12-07T14:21:25;2.10;99.90
47540;DHT22;33280;52.152;21.052;2022-12-07T14:24:22;2.10;99.90
47540;DHT22;33280;52.152;21.052;2022-12-07T14:26:50;2.10;99.90
47540;DHT22;33280;52.152;21.052;2022-12-07T14:31:53;2.00;99.90
47540;DHT22;33280;52.152;21.052;2022-12-07T14:34:23;1.90;99.90
47540;DHT22;33280;52.152;21.052;2022-12-07T14:36:51;1.90;99.90
47540;DHT22;33280;52.152;21.052;2022-12-07T14:39:18;1.90;99.90
47540;DHT22;33280;52.152;21.052;2022-12-07T14:41:45;1.90;99.90
47540;DHT22;33280;52.152;21.052;2022-12-07T14:44:21;1.80;99.90
47540;DHT22;33280;52.152;21.052;2022-12-07T14:46:52;1.80;99.90
47540;DHT22;33280;52.152;21.052;2022-12-07T14:49:39;1.80;99.90
47540;DHT22;33280;52.152;21.052;2022-12-07T14:52:18;1.80;99.90
47540;DHT22;33280;52.152;21.052;2022-12-07T14:55:14;1.70;99.90
47540;DHT22;33280;52.152;21.052;2022-12-07T14:57:42;1.70;99.90
47540;DHT22;33280;52.152;21.052;2022-12-07T15:00:14;1.60;99.90
47540;DHT22;33280;52.152;21.052;2022-12-07T15:02:41;1.70;99.90
47540;DHT22;33280;52.152;21.052;2022-12-07T15:05:08;1.60;99.90
47540;DHT22;33280;52.152;21.052;2022-12-07T15:07:42;1.50;99.90
47540;DHT22;33280;52.152;21.052;2022-12-07T15:10:24;1.50;99.90
47540;DHT22;33280;52.152;21.052;2022-12-07T15:12:51;1.40;99.90
47540;DHT22;33280;52.152;21.052;2022-12-07T15:15:18;1.50;99.90
47540;DHT22;33280;52.152;21.052;2022-12-07T15:17:44;1.40;99.90
47540;DHT22;33280;52.152;21.052;2022-12-07T15:20:15;1.30;99.90
47540;DHT22;33280;52.152;21.052;2022-12-07T15:22:43;1.30;99.90
47540;DHT22;33280;52.152;21.052;2022-12-07T15:25:13;1.30;99.90
47540;DHT22;33280;52.152;21.052;2022-12-07T15:27:40;1.30;99.90
47540;DHT22;33280;52.152;21.052;2022-12-07T15:30:07;1.30;99.90
47540;DHT22;33280;52.152;21.052;2022-12-07T15:32:34;1.40;99.90
47540;DHT22;33280;52.152;21.052;2022-12-07T15:35:01;1.40;99.90
47540;DHT22;33280;52.152;21.052;2022-12-07T15:37:29;1.40;99.90
47540;DHT22;33280;52.152;21.052;2022-12-07T15:39:56;1.30;99.90
47540;DHT22;33280;52.152;21.052;2022-12-07T15:42:22;1.30;99.90
47540;DHT22;33280;52.152;21.052;2022-12-07T15:44:49;1.30;99.90
47540;DHT22;33280;52.152;21.052;2022-12-07T15:47:37;1.30;99.90
47540;DHT22;33280;52.152;21.052;2022-12-07T15:50:24;1.30;99.90
47540;DHT22;33280;52.152;21.052;2022-12-07T15:52:51;1.30;99.90
47540;DHT22;33280;52.152;21.052;2022-12-07T15:55:18;1.30;99.90
47540;DHT22;33280;52.152;21.052;2022-12-07T15:57:45;1.30;99.90
47540;DHT22;33280;52.152;21.052;2022-12-07T16:00:12;1.40;99.90
47540;DHT22;33280;52.152;21.052;2022-12-07T16:02:40;1.40;99.90
47540;DHT22;33280;52.152;21.052;2022-12-07T16:05:07;1.40;99.90
47540;DHT22;33280;52.152;21.052;2022-12-07T16:07:34;1.40;99.90
47540;DHT22;33280;52.152;21.052;2022-12-07T16:10:01;1.40;99.90
47540;DHT22;33280;52.152;21.052;2022-12-07T16:12:27;1.40;99.90
47540;DHT22;33280;52.152;21.052;2022-12-07T16:14:54;1.40;99.90
47540;DHT22;33280;52.152;21.052;2022-12-07T16:17:21;1.40;99.90
47540;DHT22;33280;52.152;21.052;2022-12-07T16:19:48;1.50;99.90
47540;DHT22;33280;52.152;21.052;2022-12-07T16:22:15;1.50;99.90
47540;DHT22;33280;52.152;21.052;2022-12-07T16:24:42;1.50;99.90
47540;DHT22;33280;52.152;21.052;2022-12-07T16:27:08;1.50;99.90
47540;DHT22;33280;52.152;21.052;2022-12-07T16:29:35;1.50;99.90
47540;DHT22;33280;52.152;21.052;2022-12-07T16:32:02;1.60;99.90
47540;DHT22;33280;52.152;21.052;2022-12-07T16:34:29;1.60;99.90
47540;DHT22;33280;52.152;21.052;2022-12-07T16:36:56;1.60;99.90
47540;DHT22;33280;52.152;21.052;2022-12-07T16:39:32;1.50;99.90
47540;DHT22;33280;52.152;21.052;2022-12-07T16:41:59;1.50;99.90
47540;DHT22;33280;52.152;21.052;2022-12-07T16:44:26;1.50;99.90
47540;DHT22;33280;52.152;21.052;2022-12-07T16:46:53;1.50;99.90
47540;DHT22;33280;52.152;21.052;2022-12-07T16:49:20;1.40;99.90
47540;DHT22;33280;52.152;21.052;2022-12-07T16:51:49;1.50;99.90
47540;DHT22;33280;52.152;21.052;2022-12-07T16:54:36;1.40;99.90
47540;DHT22;33280;52.152;21.052;2022-12-07T16:57:03;1.40;99.90
47540;DHT22;33280;52.152;21.052;2022-12-07T16:59:30;1.40;99.90
47540;DHT22;33280;52.152;21.052;2022-12-07T17:01:58;1.40;99.90
47540;DHT22;33280;52.152;21.052;2022-12-07T17:04:24;1.50;99.90
47540;DHT22;33280;52.152;21.052;2022-12-07T17:06:52;1.50;99.90
47540;DHT22;33280;52.152;21.052;2022-12-07T17:09:19;1.50;99.90
47540;DHT22;33280;52.152;21.052;2022-12-07T17:11:47;1.60;99.90
47540;DHT22;33280;52.152;21.052;2022-12-07T17:14:15;1.60;99.90
47540;DHT22;33280;52.152;21.052;2022-12-07T17:17:01;1.70;99.90
47540;DHT22;33280;52.152;21.052;2022-12-07T17:19:28;1.70;99.90
47540;DHT22;33280;52.152;21.052;2022-12-07T17:21:57;1.70;99.90
47540;DHT22;33280;52.152;21.052;2022-12-07T17:24:27;1.70;99.90
47540;DHT22;33280;52.152;21.052;2022-12-07T17:26:54;1.70;99.90
47540;DHT22;33280;52.152;21.052;2022-12-07T17:29:21;1.70;99.90
47540;DHT22;33280;52.152;21.052;2022-12-07T17:31:48;1.70;99.90
47540;DHT22;33280;52.152;21.052;2022-12-07T17:34:18;1.80;99.90
47540;DHT22;33280;52.152;21.052;2022-12-07T17:36:45;1.80;99.90
47540;DHT22;33280;52.152;21.052;2022-12-07T17:39:16;1.80;99.90
47540;DHT22;33280;52.152;21.052;2022-12-07T17:41:43;1.80;99.90
47540;DHT22;33280;52.152;21.052;2022-12-07T17:44:29;1.80;99.90
47540;DHT22;33280;52.152;21.052;2022-12-07T17:46:57;1.80;99.90
47540;DHT22;33280;52.152;21.052;2022-12-07T17:49:25;1.80;99.90
47540;DHT22;33280;52.152;21.052;2022-12-07T17:51:53;1.80;99.90
47540;DHT22;33280;52.152;21.052;2022-12-07T17:54:39;1.80;99.90
47540;DHT22;33280;52.152;21.052;2022-12-07T17:57:06;1.80;99.90
47540;DHT22;33280;52.152;21.052;2022-12-07T17:59:33;1.90;99.90
47540;DHT22;33280;52.152;21.052;2022-12-07T18:02:00;1.90;99.90
47540;DHT22;33280;52.152;21.052;2022-12-07T18:04:27;1.90;99.90
47540;DHT22;33280;52.152;21.052;2022-12-07T18:06:54;1.90;99.90
47540;DHT22;33280;52.152;21.052;2022-12-07T18:09:21;1.90;99.90
47540;DHT22;33280;52.152;21.052;2022-12-07T18:11:49;1.80;99.90